Time;durP1;ratioP1;P1;durP2;ratioP2;P2;SDS_P1;SDS_P2;PMS_P1;PMS_P2;Temp;Humidity;BMP_temperature;BMP_pressure;BME280_temperature;BME280_humidity;BME280_pressure;Samples;Min_cycle;Max_cycle;Signal;HPM_P1;HPM_P2
2022/07/21 00:01:29;;;;;;;2.70;2.50;;;23.30;99.90;;;;;;5066974;28;20326;-80
2022/07/21 00:03:54;;;;;;;2.60;1.60;;;23.10;99.90;;;;;;5065885;28;20185;-81
2022/07/21 00:06:20;;;;;;;2.53;1.73;;;23.00;99.90;;;;;;5067009;28;20192;-80
2022/07/21 00:08:46;;;;;;;3.43;1.83;;;23.20;99.90;;;;;;5067848;28;20767;-80
2022/07/21 00:11:11;;;;;;;1.83;1.67;;;23.20;99.90;;;;;;5066082;28;20723;-80
2022/07/21 00:13:37;;;;;;;1.30;1.20;;;22.90;99.90;;;;;;5082817;28;20193;-80
2022/07/21 00:16:02;;;;;;;1.53;1.23;;;23.10;99.90;;;;;;5069074;28;20177;-80
2022/07/21 00:18:28;;;;;;;1.53;1.30;;;23.30;99.90;;;;;;5067815;28;20636;-80
2022/07/21 00:20:55;;;;;;;3.00;1.83;;;23.40;99.90;;;;;;5063645;28;20194;-80
2022/07/21 00:23:23;;;;;;;2.77;1.13;;;23.50;99.90;;;;;;5070167;28;20185;-80
2022/07/21 00:25:49;;;;;;;4.77;2.47;;;23.50;99.90;;;;;;5077690;28;20709;-80
2022/07/21 00:28:15;;;;;;;3.10;1.40;;;23.50;99.90;;;;;;5064704;28;22214;-80
2022/07/21 00:30:40;;;;;;;1.03;0.97;;;23.60;99.90;;;;;;5065365;28;20215;-80
2022/07/21 00:33:06;;;;;;;1.87;1.77;;;23.70;99.90;;;;;;5067475;28;20673;-81
2022/07/21 00:35:31;;;;;;;2.00;1.17;;;23.70;99.90;;;;;;5068065;28;20255;-80
2022/07/21 00:37:57;;;;;;;2.23;1.27;;;23.80;99.90;;;;;;5066006;28;20174;-80
2022/07/21 00:40:23;;;;;;;3.57;2.27;;;23.80;99.90;;;;;;5066286;28;20181;-81
2022/07/21 00:42:49;;;;;;;2.43;2.03;;;23.60;99.90;;;;;;5068879;28;20181;-80
2022/07/21 00:45:14;;;;;;;2.20;1.40;;;23.70;99.90;;;;;;5069487;28;20218;-80
2022/07/21 00:47:40;;;;;;;2.27;2.03;;;23.70;99.90;;;;;;5068639;28;20181;-80
2022/07/21 00:50:09;;;;;;;2.10;1.70;;;23.60;99.90;;;;;;5067272;28;20266;-80
2022/07/21 00:52:35;;;;;;;1.50;1.10;;;23.70;99.90;;;;;;5068325;28;20227;-80
2022/07/21 00:55:02;;;;;;;4.70;1.50;;;23.70;99.90;;;;;;5059537;28;20705;-80
2022/07/21 00:57:28;;;;;;;2.00;1.53;;;23.80;99.90;;;;;;5065885;28;20267;-80
2022/07/21 00:59:53;;;;;;;2.73;1.43;;;23.90;99.90;;;;;;5064460;28;21733;-80
2022/07/21 01:02:19;;;;;;;1.23;1.13;;;23.90;99.90;;;;;;5065582;28;20272;-81
2022/07/21 01:04:44;;;;;;;1.03;1.03;;;23.80;99.90;;;;;;5061893;28;20642;-81
2022/07/21 01:07:10;;;;;;;2.03;1.80;;;23.90;99.90;;;;;;5056671;28;20224;-80
2022/07/21 01:09:36;;;;;;;3.37;2.67;;;23.90;99.90;;;;;;5064748;28;20291;-81
2022/07/21 01:12:02;;;;;;;2.60;2.40;;;23.80;99.90;;;;;;5062275;28;20591;-80
2022/07/21 01:14:28;;;;;;;2.13;1.90;;;23.70;99.90;;;;;;5065090;28;20220;-80
2022/07/21 01:16:54;;;;;;;3.40;2.53;;;23.60;99.90;;;;;;5066476;28;20193;-80
2022/07/21 01:19:19;;;;;;;6.93;1.70;;;23.50;99.90;;;;;;5066266;28;20193;-80
2022/07/21 01:21:47;;;;;;;5.13;2.33;;;23.40;99.90;;;;;;5064371;28;20188;-80
2022/07/21 01:24:13;;;;;;;2.93;1.57;;;23.30;99.90;;;;;;5077820;28;20191;-80
2022/07/21 01:26:44;;;;;;;4.53;1.40;;;23.30;99.90;;;;;;5065302;28;20185;-80
2022/07/21 01:29:11;;;;;;;2.03;1.50;;;23.40;99.90;;;;;;5061661;28;20205;-80
2022/07/21 01:31:38;;;;;;;1.73;1.63;;;23.30;99.90;;;;;;5065623;28;20649;-80
2022/07/21 01:34:04;;;;;;;3.40;3.10;;;23.30;99.90;;;;;;5066116;28;20670;-80
2022/07/21 01:36:29;;;;;;;1.87;1.57;;;23.30;99.90;;;;;;5066848;28;20259;-80
2022/07/21 01:41:39;;;;;;;3.20;2.30;;;23.10;99.90;;;;;;5064262;28;20192;-80
2022/07/21 01:44:08;;;;;;;1.77;1.67;;;22.90;99.90;;;;;;5067069;28;20185;-80
2022/07/21 01:46:43;;;;;;;2.83;1.13;;;22.70;99.90;;;;;;5066299;28;20605;-80
2022/07/21 01:49:10;;;;;;;1.13;1.07;;;22.50;99.90;;;;;;5067994;28;20216;-80
2022/07/21 01:51:35;;;;;;;1.50;1.40;;;22.40;99.90;;;;;;5065878;28;20181;-80
2022/07/21 01:54:02;;;;;;;2.27;1.03;;;22.20;99.90;;;;;;5068388;28;20212;-80
2022/07/21 01:56:28;;;;;;;0.60;0.60;;;21.90;99.90;;;;;;5068271;28;20177;-81
2022/07/21 01:58:56;;;;;;;1.13;0.90;;;21.50;99.90;;;;;;5068041;28;20211;-80
2022/07/21 02:01:23;;;;;;;0.57;0.47;;;21.20;99.90;;;;;;5072521;28;20177;-80
2022/07/21 02:03:49;;;;;;;0.50;0.50;;;21.20;99.90;;;;;;5068891;28;20238;-80
2022/07/21 02:06:15;;;;;;;0.70;0.70;;;21.30;99.90;;;;;;5062976;28;20177;-80
2022/07/21 02:08:44;;;;;;;0.90;0.80;;;21.20;99.90;;;;;;5068599;28;20780;-80
2022/07/21 02:11:12;;;;;;;0.87;0.63;;;21.10;99.90;;;;;;5068325;28;20174;-78
2022/07/21 02:13:37;;;;;;;0.73;0.73;;;21.30;99.90;;;;;;5071550;28;20177;-79
2022/07/21 02:16:03;;;;;;;0.83;0.60;;;21.30;99.90;;;;;;5064046;28;20220;-79
2022/07/21 02:18:29;;;;;;;0.50;0.50;;;21.40;99.90;;;;;;5068761;28;20735;-79
2022/07/21 02:20:55;;;;;;;0.67;0.67;;;21.40;99.90;;;;;;5072114;28;20185;-79
2022/07/21 02:23:22;;;;;;;0.70;0.70;;;21.30;99.90;;;;;;5062733;28;20182;-79
2022/07/21 02:25:48;;;;;;;0.50;0.50;;;21.30;99.90;;;;;;5066172;28;20650;-79
2022/07/21 02:28:14;;;;;;;0.70;0.50;;;21.40;99.90;;;;;;5062043;28;20211;-80
2022/07/21 02:30:39;;;;;;;0.97;0.93;;;21.50;99.90;;;;;;5077385;28;20189;-80
2022/07/21 02:33:05;;;;;;;1.77;1.03;;;21.50;99.90;;;;;;5059330;28;20772;-80
2022/07/21 02:35:31;;;;;;;1.23;0.80;;;21.60;99.90;;;;;;5070401;28;20204;-79
2022/07/21 02:37:57;;;;;;;0.50;0.50;;;21.50;99.90;;;;;;5069064;28;20550;-79
2022/07/21 02:40:22;;;;;;;1.17;0.70;;;21.70;99.90;;;;;;5069685;28;22146;-80
2022/07/21 02:42:48;;;;;;;1.50;0.70;;;21.80;99.90;;;;;;5069728;28;20278;-80
2022/07/21 02:45:13;;;;;;;0.67;0.67;;;21.80;99.90;;;;;;5066628;28;20244;-80
2022/07/21 02:47:57;;;;;;;0.70;0.70;;;21.90;99.90;;;;;;5084278;28;20307;-80
2022/07/21 02:50:34;;;;;;;0.80;0.67;;;22.00;99.90;;;;;;5061244;28;20288;-80
2022/07/21 02:53:05;;;;;;;1.20;0.87;;;21.90;99.90;;;;;;5066614;28;20177;-80
2022/07/21 02:55:31;;;;;;;1.13;0.60;;;21.90;99.90;;;;;;5064256;28;20669;-80
2022/07/21 02:58:15;;;;;;;0.80;0.80;;;21.80;99.90;;;;;;5070723;28;20238;-80
2022/07/21 03:00:44;;;;;;;2.63;0.70;;;21.60;99.90;;;;;;5068470;28;20185;-80
2022/07/21 03:03:10;;;;;;;1.90;0.80;;;21.60;99.90;;;;;;5065459;28;20994;-80
2022/07/21 03:05:37;;;;;;;1.37;0.80;;;21.50;99.90;;;;;;5061483;28;20271;-80
2022/07/21 03:08:03;;;;;;;1.20;0.50;;;21.50;99.90;;;;;;5066102;28;20185;-80
2022/07/21 03:10:29;;;;;;;0.30;0.30;;;21.40;99.90;;;;;;5081692;28;20188;-80
2022/07/21 03:12:55;;;;;;;0.90;0.90;;;21.30;99.90;;;;;;5064297;28;20562;-80
2022/07/21 03:15:20;;;;;;;0.80;0.80;;;21.20;99.90;;;;;;5066150;28;20616;-80
2022/07/21 03:17:46;;;;;;;1.40;0.90;;;21.30;99.90;;;;;;5068575;28;20185;-80
2022/07/21 03:20:12;;;;;;;2.00;1.17;;;21.30;99.90;;;;;;5070047;28;20197;-79
2022/07/21 03:22:37;;;;;;;1.07;0.90;;;21.30;99.90;;;;;;5063161;28;20208;-80
2022/07/21 03:25:04;;;;;;;1.00;1.00;;;21.30;99.90;;;;;;5068088;28;20182;-80
2022/07/21 03:27:29;;;;;;;0.77;0.77;;;21.30;99.90;;;;;;5063027;28;20182;-80
2022/07/21 03:29:55;;;;;;;0.90;0.90;;;21.20;99.90;;;;;;5066614;28;20196;-80
2022/07/21 03:32:20;;;;;;;1.43;0.73;;;21.20;99.90;;;;;;5068489;28;20215;-80
2022/07/21 03:34:46;;;;;;;0.93;0.93;;;21.20;99.90;;;;;;5069600;28;20240;-80
2022/07/21 03:37:12;;;;;;;0.70;0.70;;;21.10;99.90;;;;;;5070476;28;20173;-80
2022/07/21 03:39:37;;;;;;;1.80;0.60;;;21.10;99.90;;;;;;5061401;28;20205;-80
2022/07/21 03:42:03;;;;;;;2.30;1.53;;;21.10;99.90;;;;;;5059648;28;20654;-80
2022/07/21 03:44:29;;;;;;;0.57;0.57;;;21.00;99.90;;;;;;5065009;28;20215;-80
2022/07/21 03:46:54;;;;;;;1.90;0.93;;;21.00;99.90;;;;;;5068644;28;20263;-80
2022/07/21 03:49:20;;;;;;;0.77;0.77;;;20.90;99.90;;;;;;5068984;28;20720;-80
2022/07/21 03:51:45;;;;;;;0.90;0.80;;;20.90;99.90;;;;;;5062805;28;20192;-80
2022/07/21 03:54:11;;;;;;;1.50;0.83;;;20.90;99.90;;;;;;5066413;28;20701;-80
2022/07/21 03:56:36;;;;;;;2.20;1.07;;;20.80;99.90;;;;;;5068613;28;20185;-80
2022/07/21 03:59:02;;;;;;;0.70;0.70;;;20.80;99.90;;;;;;5062433;28;20247;-80
2022/07/21 04:01:27;;;;;;;1.80;0.90;;;20.80;99.90;;;;;;5064101;28;20914;-80
2022/07/21 04:03:53;;;;;;;1.00;0.90;;;20.80;99.90;;;;;;5064051;28;20215;-79
2022/07/21 04:06:18;;;;;;;1.03;0.90;;;20.90;99.90;;;;;;5065200;28;20276;-80
2022/07/21 04:08:44;;;;;;;0.90;0.77;;;20.90;99.90;;;;;;5065214;28;20284;-80
2022/07/21 04:11:09;;;;;;;0.87;0.87;;;20.90;99.90;;;;;;5067010;28;20181;-80
2022/07/21 04:13:35;;;;;;;1.40;1.30;;;20.90;99.90;;;;;;5063784;28;20193;-80
2022/07/21 04:16:00;;;;;;;0.83;0.70;;;20.90;99.90;;;;;;5064722;28;20200;-80
2022/07/21 04:18:26;;;;;;;2.93;1.60;;;20.80;99.90;;;;;;5081617;28;20197;-80
2022/07/21 04:20:51;;;;;;;1.60;0.93;;;20.80;99.90;;;;;;5064644;28;20247;-80
2022/07/21 04:23:17;;;;;;;1.07;0.77;;;20.70;99.90;;;;;;5063097;28;20170;-80
2022/07/21 04:25:42;;;;;;;0.97;0.97;;;20.80;99.90;;;;;;5068426;28;20181;-80
2022/07/21 04:28:08;;;;;;;1.37;0.53;;;20.90;99.90;;;;;;5066069;28;20181;-81
2022/07/21 04:30:33;;;;;;;0.83;0.83;;;20.90;99.90;;;;;;5088742;28;20271;-82
2022/07/21 04:32:59;;;;;;;0.80;0.80;;;20.90;99.90;;;;;;5076020;28;20173;-80
2022/07/21 04:35:25;;;;;;;1.07;0.93;;;20.90;99.90;;;;;;5063841;28;20273;-80
2022/07/21 04:37:50;;;;;;;0.63;0.63;;;21.00;99.90;;;;;;5061522;28;20539;-80
2022/07/21 04:40:17;;;;;;;0.80;0.70;;;21.00;99.90;;;;;;5066742;28;20269;-79
2022/07/21 04:42:43;;;;;;;0.70;0.70;;;21.10;99.90;;;;;;5063507;28;20230;-80
2022/07/21 04:45:11;;;;;;;1.47;1.17;;;21.40;99.90;;;;;;5068785;28;20242;-80
2022/07/21 04:47:52;;;;;;;2.83;1.03;;;21.60;99.90;;;;;;5058008;28;20177;-80
2022/07/21 04:50:20;;;;;;;1.67;0.83;;;21.60;99.90;;;;;;5062358;28;20604;-80
2022/07/21 04:52:46;;;;;;;1.50;1.40;;;21.70;99.90;;;;;;5066034;28;20187;-80
2022/07/21 04:55:12;;;;;;;1.03;0.90;;;21.80;99.90;;;;;;5065836;28;20221;-80
2022/07/21 04:57:39;;;;;;;1.40;1.30;;;21.90;99.90;;;;;;5066431;28;20185;-80
2022/07/21 05:00:06;;;;;;;1.50;1.13;;;22.00;99.90;;;;;;5063455;28;20200;-80
2022/07/21 05:02:32;;;;;;;0.73;0.73;;;22.10;99.90;;;;;;5069382;28;20630;-80
2022/07/21 05:04:58;;;;;;;1.00;0.50;;;22.20;99.90;;;;;;5064781;28;20238;-80
2022/07/21 05:07:23;;;;;;;1.30;1.20;;;22.40;99.90;;;;;;5074871;28;20268;-80
2022/07/21 05:09:49;;;;;;;0.93;0.83;;;22.40;99.90;;;;;;5059015;28;20211;-80
2022/07/21 05:12:14;;;;;;;1.60;0.90;;;22.50;99.90;;;;;;5064369;28;20195;-80
2022/07/21 05:14:40;;;;;;;1.93;0.90;;;22.60;99.90;;;;;;5065558;28;20205;-80
2022/07/21 05:17:05;;;;;;;0.70;0.67;;;22.60;99.90;;;;;;5062655;28;20188;-80
2022/07/21 05:19:31;;;;;;;1.37;1.20;;;22.50;99.90;;;;;;5067807;28;20201;-80
2022/07/21 05:21:56;;;;;;;1.50;0.80;;;22.40;99.90;;;;;;5063565;28;20550;-80
2022/07/21 05:24:22;;;;;;;1.00;0.90;;;22.40;99.90;;;;;;5062281;28;20227;-79
2022/07/21 05:26:48;;;;;;;2.13;0.93;;;22.40;99.90;;;;;;5064176;28;20221;-80
2022/07/21 05:29:13;;;;;;;0.80;0.77;;;22.20;99.90;;;;;;5070827;28;20720;-80
2022/07/21 05:31:39;;;;;;;1.20;1.10;;;22.20;99.90;;;;;;5073200;28;20251;-80
2022/07/21 05:34:04;;;;;;;3.03;1.53;;;22.10;99.90;;;;;;5068967;28;20184;-80
2022/07/21 05:36:30;;;;;;;0.77;0.77;;;22.20;99.90;;;;;;5064294;28;20178;-79
2022/07/21 05:38:55;;;;;;;0.83;0.83;;;22.10;99.90;;;;;;5072693;28;20295;-80
2022/07/21 05:41:21;;;;;;;0.83;0.83;;;22.20;99.90;;;;;;5065705;28;20710;-79
2022/07/21 05:43:47;;;;;;;0.90;0.90;;;22.10;99.90;;;;;;5066384;28;20192;-80
2022/07/21 05:46:13;;;;;;;1.00;1.00;;;22.20;99.90;;;;;;5069904;28;20283;-80
2022/07/21 05:48:39;;;;;;;0.90;0.80;;;22.40;99.90;;;;;;5067990;28;20220;-80
2022/07/21 05:51:05;;;;;;;1.30;1.10;;;22.60;99.90;;;;;;5065227;28;20178;-80
2022/07/21 05:53:31;;;;;;;1.47;1.07;;;23.00;99.90;;;;;;5073186;28;20185;-80
2022/07/21 05:55:56;;;;;;;1.00;1.00;;;23.20;99.90;;;;;;5068729;28;20229;-80
2022/07/21 05:58:24;;;;;;;1.40;1.20;;;23.20;99.90;;;;;;5071131;28;20681;-80
2022/07/21 06:01:07;;;;;;;0.83;0.80;;;22.90;99.90;;;;;;5068152;28;20238;-80
2022/07/21 06:03:37;;;;;;;1.00;1.00;;;22.80;99.90;;;;;;5065019;28;20281;-80
2022/07/21 06:06:03;;;;;;;1.40;1.10;;;22.70;99.90;;;;;;5069185;28;20634;-80
2022/07/21 06:08:28;;;;;;;1.37;1.27;;;22.60;99.90;;;;;;5067444;28;20292;-80
2022/07/21 06:10:54;;;;;;;1.33;0.80;;;22.60;99.90;;;;;;5085057;28;20277;-80
2022/07/21 06:13:20;;;;;;;0.80;0.80;;;22.70;99.90;;;;;;5065664;28;20184;-80
2022/07/21 06:15:45;;;;;;;3.33;0.93;;;22.70;99.90;;;;;;5069823;28;20249;-80
2022/07/21 06:18:11;;;;;;;0.40;0.40;;;22.60;99.90;;;;;;5071068;28;20190;-80
2022/07/21 06:20:36;;;;;;;0.97;0.97;;;22.70;99.90;;;;;;5069034;28;20668;-80
2022/07/21 06:23:02;;;;;;;0.80;0.80;;;22.60;99.90;;;;;;5065904;28;20185;-80
2022/07/21 06:25:28;;;;;;;1.30;0.67;;;22.40;99.90;;;;;;5070348;28;20659;-80
2022/07/21 06:27:53;;;;;;;0.83;0.80;;;22.40;99.90;;;;;;5069832;28;20224;-80
2022/07/21 06:30:19;;;;;;;1.30;1.20;;;22.40;99.90;;;;;;5062498;28;20676;-80
2022/07/21 06:32:45;;;;;;;1.87;1.27;;;22.30;99.90;;;;;;5067611;28;20650;-80
2022/07/21 06:35:10;;;;;;;1.07;0.97;;;22.20;99.90;;;;;;5067424;28;20189;-80
2022/07/21 06:37:36;;;;;;;1.77;1.10;;;22.30;99.90;;;;;;5064129;28;20209;-80
2022/07/21 06:40:03;;;;;;;1.20;1.07;;;22.60;99.90;;;;;;5066603;28;20602;-80
2022/07/21 06:42:28;;;;;;;1.20;1.10;;;22.80;99.90;;;;;;5068383;28;20204;-80
2022/07/21 06:44:54;;;;;;;1.20;1.10;;;22.90;99.90;;;;;;5071450;28;20217;-80
2022/07/21 06:47:20;;;;;;;1.20;1.10;;;23.30;99.90;;;;;;5069030;28;20256;-80
2022/07/21 06:49:45;;;;;;;1.00;1.00;;;23.70;99.90;;;;;;5066857;28;20260;-80
2022/07/21 06:52:11;;;;;;;1.03;1.03;;;24.00;99.90;;;;;;5062461;28;20185;-80
2022/07/21 06:54:36;;;;;;;1.23;1.13;;;24.30;99.90;;;;;;5066365;28;20270;-80
2022/07/21 06:57:02;;;;;;;1.60;1.00;;;24.40;99.90;;;;;;5076642;28;20256;-80
2022/07/21 06:59:28;;;;;;;0.63;0.63;;;24.40;99.90;;;;;;5070143;28;20200;-80
2022/07/21 07:01:53;;;;;;;0.90;0.90;;;24.40;99.90;;;;;;5068570;28;20185;-80
2022/07/21 07:04:19;;;;;;;1.53;1.40;;;24.50;99.90;;;;;;5068013;28;20189;-80
2022/07/21 07:06:44;;;;;;;1.10;1.00;;;24.20;99.90;;;;;;5071319;28;20184;-80
2022/07/21 07:09:10;;;;;;;1.50;1.20;;;24.50;99.90;;;;;;5069058;28;21055;-80
2022/07/21 07:11:35;;;;;;;1.60;1.30;;;24.60;99.90;;;;;;5067071;28;20597;-80
2022/07/21 07:14:01;;;;;;;1.30;1.20;;;24.50;99.90;;;;;;5066764;28;20189;-80
2022/07/21 07:16:26;;;;;;;1.23;0.93;;;24.70;99.90;;;;;;5067353;28;20185;-80
2022/07/21 07:18:52;;;;;;;1.23;1.13;;;24.70;99.90;;;;;;5067699;28;20969;-80
2022/07/21 07:21:17;;;;;;;0.97;0.97;;;24.50;99.90;;;;;;5069005;28;20189;-80
2022/07/21 07:23:44;;;;;;;2.83;1.03;;;24.40;99.90;;;;;;5069930;28;20246;-80
2022/07/21 07:26:09;;;;;;;1.70;1.30;;;24.30;99.90;;;;;;5070462;28;20280;-80
2022/07/21 07:28:35;;;;;;;0.97;0.93;;;24.10;99.90;;;;;;5069412;28;20284;-80
2022/07/21 07:31:01;;;;;;;0.90;0.90;;;24.00;99.90;;;;;;5069587;28;20379;-81
2022/07/21 07:33:27;;;;;;;2.33;1.07;;;24.10;99.90;;;;;;5069703;28;20220;-80
2022/07/21 07:35:52;;;;;;;1.07;0.70;;;24.10;99.90;;;;;;5061917;28;20643;-80
2022/07/21 07:38:18;;;;;;;1.30;1.20;;;24.30;99.90;;;;;;5062764;28;20263;-80
2022/07/21 07:40:44;;;;;;;1.30;1.20;;;24.60;99.90;;;;;;5061472;28;20182;-80
2022/07/21 07:43:09;;;;;;;2.37;1.00;;;24.70;99.90;;;;;;5064329;28;20197;-80
2022/07/21 07:45:36;;;;;;;1.60;0.77;;;24.90;99.90;;;;;;5064181;28;20208;-80
2022/07/21 07:48:01;;;;;;;1.20;1.10;;;25.50;99.90;;;;;;5081060;28;20594;-80
2022/07/21 07:50:28;;;;;;;0.63;0.63;;;25.70;99.90;;;;;;5070885;28;20204;-80
2022/07/21 07:52:54;;;;;;;1.17;1.10;;;25.80;99.90;;;;;;5069890;28;20191;-80
2022/07/21 07:55:20;;;;;;;0.57;0.57;;;25.70;99.90;;;;;;5065155;28;20220;-80
2022/07/21 07:57:46;;;;;;;1.80;1.00;;;25.70;99.90;;;;;;5067228;28;20268;-81
2022/07/21 08:00:17;;;;;;;0.90;0.90;;;25.70;99.90;;;;;;5071435;28;20224;-81
2022/07/21 08:02:42;;;;;;;0.50;0.50;;;25.80;99.90;;;;;;5067129;28;20192;-81
2022/07/21 08:05:09;;;;;;;0.70;0.70;;;26.30;99.90;;;;;;5068261;28;20189;-81
2022/07/21 08:07:37;;;;;;;1.27;1.20;;;26.70;99.90;;;;;;5069503;28;20324;-81
2022/07/21 08:10:07;;;;;;;0.87;0.87;;;27.20;99.90;;;;;;5061507;28;20580;-80
2022/07/21 08:12:33;;;;;;;2.47;2.03;;;27.60;99.90;;;;;;5063381;28;20211;-81
2022/07/21 08:14:58;;;;;;;1.10;0.60;;;27.40;99.90;;;;;;5065939;28;20622;-80
2022/07/21 08:17:24;;;;;;;1.10;0.57;;;27.30;99.90;;;;;;5068441;28;20185;-80
2022/07/21 08:19:49;;;;;;;0.83;0.80;;;27.40;99.90;;;;;;5069920;28;20204;-80
2022/07/21 08:22:15;;;;;;;1.63;0.90;;;27.30;99.90;;;;;;5067186;28;20234;-80
2022/07/21 08:24:40;;;;;;;1.40;0.80;;;27.20;99.90;;;;;;5069186;28;20185;-81
2022/07/21 08:27:06;;;;;;;1.93;1.00;;;27.50;99.90;;;;;;5068197;28;20193;-80
2022/07/21 08:29:31;;;;;;;0.80;0.80;;;27.20;99.90;;;;;;5067585;28;20292;-81
2022/07/21 08:31:57;;;;;;;1.63;1.07;;;26.90;99.90;;;;;;5062533;28;20273;-80
2022/07/21 08:34:22;;;;;;;1.00;0.83;;;26.50;99.90;;;;;;5062450;28;20259;-80
2022/07/21 08:36:48;;;;;;;1.33;0.90;;;26.40;99.90;;;;;;5067085;28;20181;-80
2022/07/21 08:39:14;;;;;;;1.67;1.37;;;26.30;99.90;;;;;;5063843;28;20572;-80
2022/07/21 08:41:40;;;;;;;1.97;1.63;;;26.30;99.90;;;;;;5056667;28;20563;-80
2022/07/21 08:44:07;;;;;;;1.23;1.13;;;26.50;99.90;;;;;;5060418;28;20240;-80
2022/07/21 08:46:34;;;;;;;1.27;1.00;;;26.40;99.90;;;;;;5059334;28;20551;-80
2022/07/21 08:49:02;;;;;;;3.80;1.13;;;26.40;99.90;;;;;;5061671;28;20313;-81
2022/07/21 08:51:34;;;;;;;0.77;0.70;;;26.40;99.90;;;;;;5062291;28;20186;-81
2022/07/21 08:53:59;;;;;;;0.67;0.67;;;26.50;99.90;;;;;;5067580;28;20215;-80
2022/07/21 08:56:25;;;;;;;0.97;0.83;;;26.60;99.90;;;;;;5058149;28;20181;-80
2022/07/21 08:58:50;;;;;;;0.80;0.80;;;27.00;99.90;;;;;;5065033;28;20329;-80
2022/07/21 09:01:16;;;;;;;1.80;1.13;;;27.20;99.90;;;;;;5065674;28;20182;-80
2022/07/21 09:03:41;;;;;;;0.83;0.83;;;27.60;99.90;;;;;;5067654;28;20279;-80
2022/07/21 09:06:11;;;;;;;0.60;0.60;;;27.50;99.90;;;;;;5064609;28;20250;-80
2022/07/21 09:08:39;;;;;;;0.77;0.73;;;28.00;99.90;;;;;;5063082;28;20216;-80
2022/07/21 09:11:09;;;;;;;0.77;0.77;;;27.90;99.90;;;;;;5065631;28;20545;-80
2022/07/21 09:13:34;;;;;;;1.63;1.20;;;28.10;99.90;;;;;;5062459;28;20707;-80
2022/07/21 09:16:00;;;;;;;1.45;0.95;;;27.70;99.90;;;;;;5066300;28;20201;-80
2022/07/21 09:18:25;;;;;;;1.07;1.00;;;27.60;99.90;;;;;;5067011;28;20197;-80
2022/07/21 09:20:53;;;;;;;1.23;1.17;;;27.50;99.90;;;;;;5063756;28;20642;-80
2022/07/21 09:23:21;;;;;;;1.50;0.87;;;27.50;99.90;;;;;;5064834;28;20800;-80
2022/07/21 09:25:51;;;;;;;1.20;1.10;;;27.40;99.90;;;;;;5062607;28;20584;-80
2022/07/21 09:28:18;;;;;;;1.10;0.60;;;27.60;99.90;;;;;;5064474;28;20646;-80
2022/07/21 09:30:59;;;;;;;1.07;0.97;;;27.50;99.90;;;;;;5068303;28;20177;-82
2022/07/21 09:33:31;;;;;;;1.07;1.03;;;27.80;99.90;;;;;;5061813;28;20192;-80
2022/07/21 09:36:10;;;;;;;0.97;0.90;;;28.10;99.90;;;;;;5058573;28;20200;-81
2022/07/21 09:38:50;;;;;;;1.07;1.07;;;28.20;99.90;;;;;;5065011;28;20617;-81
2022/07/21 09:41:18;;;;;;;0.50;0.50;;;28.50;99.90;;;;;;5062700;28;20218;-80
2022/07/21 09:43:44;;;;;;;0.55;0.55;;;29.00;99.90;;;;;;5078413;28;20181;-81
2022/07/21 09:46:16;;;;;;;1.25;0.95;;;29.10;99.90;;;;;;5063604;28;20289;-81
2022/07/21 09:48:45;;;;;;;0.93;0.90;;;29.30;99.90;;;;;;5066387;28;20279;-81
2022/07/21 09:51:23;;;;;;;0.50;0.50;;;29.30;99.90;;;;;;5063451;28;20181;-81
2022/07/21 09:53:49;;;;;;;0.70;0.70;;;29.50;99.90;;;;;;5062370;28;20231;-81
2022/07/21 09:56:17;;;;;;;1.13;0.70;;;29.70;99.90;;;;;;5064325;28;20288;-80
2022/07/21 09:58:47;;;;;;;0.95;0.95;;;29.30;99.90;;;;;;5065243;28;20197;-80
2022/07/21 10:01:13;;;;;;;0.95;0.85;;;29.50;99.90;;;;;;5063344;28;20260;-81
2022/07/21 10:03:39;;;;;;;0.57;0.57;;;28.90;99.90;;;;;;5076900;28;20250;-81
2022/07/21 10:06:06;;;;;;;0.70;0.70;;;28.40;99.90;;;;;;5060616;28;20182;-81
2022/07/21 10:08:34;;;;;;;0.50;0.50;;;28.50;99.90;;;;;;5081011;28;20570;-82
2022/07/21 10:11:00;;;;;;;3.17;1.30;;;28.90;99.90;;;;;;5065824;28;20177;-81
2022/07/21 10:13:27;;;;;;;1.93;0.90;;;28.60;99.90;;;;;;5063131;28;20662;-81
2022/07/21 10:15:53;;;;;;;0.30;0.30;;;28.70;99.90;;;;;;5070444;28;20205;-81
2022/07/21 10:18:22;;;;;;;0.80;0.80;;;29.20;99.90;;;;;;5068622;28;20185;-81
2022/07/21 10:20:54;;;;;;;1.33;1.08;;;29.40;99.90;;;;;;5068454;28;20209;-81
2022/07/21 10:23:35;;;;;;;1.25;1.15;;;29.20;99.90;;;;;;5068215;28;20196;-81
2022/07/21 10:26:02;;;;;;;1.10;1.10;;;29.40;99.90;;;;;;5062068;28;20182;-81
2022/07/21 10:28:28;;;;;;;1.23;1.13;;;29.20;99.90;;;;;;5069750;28;20197;-81
2022/07/21 10:30:56;;;;;;;1.23;1.13;;;29.20;99.90;;;;;;5079798;28;20263;-81
2022/07/21 10:33:47;;;;;;;1.43;0.87;;;28.90;99.90;;;;;;5067715;28;20192;-81
2022/07/21 10:36:28;;;;;;;0.55;0.43;;;28.40;99.90;;;;;;5082413;28;20205;-82
2022/07/21 10:39:23;;;;;;;1.05;0.60;;;28.10;99.90;;;;;;5066261;28;20205;-81
2022/07/21 10:41:52;;;;;;;0.63;0.40;;;28.20;99.90;;;;;;5054155;28;20272;-81
2022/07/21 10:44:27;;;;;;;0.50;0.50;;;28.30;99.90;;;;;;5065269;28;20281;-81
2022/07/21 10:47:05;;;;;;;0.47;0.47;;;28.40;99.90;;;;;;5066475;28;20642;-81
2022/07/21 10:50:00;;;;;;;0.77;0.77;;;28.50;99.90;;;;;;5073611;28;20807;-81
2022/07/21 10:52:34;;;;;;;1.53;0.80;;;28.90;99.90;;;;;;5064310;28;20275;-81
2022/07/21 10:55:26;;;;;;;0.50;0.50;;;28.90;99.90;;;;;;5068660;28;20253;-82
2022/07/21 10:58:13;;;;;;;0.70;0.70;;;28.80;99.90;;;;;;5071197;28;20218;-80
2022/07/21 11:00:52;;;;;;;0.98;0.70;;;28.80;99.90;;;;;;5070585;28;20185;-81
2022/07/21 11:03:29;;;;;;;0.52;0.52;;;28.70;99.90;;;;;;5070922;28;20177;-80
2022/07/21 11:06:06;;;;;;;0.55;0.50;;;28.30;99.90;;;;;;5066798;28;20193;-81
2022/07/21 11:08:37;;;;;;;0.90;0.73;;;27.90;99.90;;;;;;5068531;28;20200;-81
2022/07/21 11:11:11;;;;;;;1.13;0.95;;;28.20;99.90;;;;;;5071850;28;20875;-80
2022/07/21 11:14:12;;;;;;;0.60;0.60;;;28.30;99.90;;;;;;5069533;28;20185;-81
2022/07/21 11:16:52;;;;;;;1.48;0.85;;;28.40;99.90;;;;;;5067771;28;20188;-80
2022/07/21 11:19:37;;;;;;;0.73;0.70;;;28.80;99.90;;;;;;5067861;28;20204;-80
2022/07/21 11:22:24;;;;;;;0.95;0.60;;;29.00;99.90;;;;;;5071833;28;20522;-80
2022/07/21 11:24:58;;;;;;;0.43;0.43;;;29.10;99.90;;;;;;5069410;28;20192;-81
2022/07/21 11:27:26;;;;;;;1.15;1.08;;;28.90;99.90;;;;;;5070947;28;20208;-81
2022/07/21 11:29:58;;;;;;;1.58;0.65;;;29.10;99.90;;;;;;5062585;28;20289;-81
2022/07/21 11:32:24;;;;;;;0.52;0.52;;;29.20;99.90;;;;;;5068111;28;20191;-82
2022/07/21 11:34:58;;;;;;;1.05;1.05;;;29.40;99.90;;;;;;5065941;28;20693;-81
2022/07/21 11:37:33;;;;;;;1.38;1.13;;;29.60;99.90;;;;;;5065120;28;20659;-81
2022/07/21 11:39:58;;;;;;;0.70;0.70;;;29.50;99.90;;;;;;5071302;28;20204;-81
2022/07/21 11:42:25;;;;;;;0.52;0.52;;;29.40;99.90;;;;;;5071301;28;20306;-81
2022/07/21 11:44:51;;;;;;;2.72;0.52;;;29.80;99.90;;;;;;5068224;28;20200;-81
2022/07/21 11:47:18;;;;;;;0.82;0.80;;;30.00;99.90;;;;;;5065334;28;20197;-81
2022/07/21 11:49:44;;;;;;;0.88;0.88;;;29.50;99.90;;;;;;5063814;28;20589;-81
2022/07/21 11:52:13;;;;;;;4.63;0.82;;;29.50;99.90;;;;;;5066968;28;20189;-81
2022/07/21 11:54:47;;;;;;;1.02;0.93;;;29.40;99.90;;;;;;5061235;28;20209;-81
2022/07/21 11:57:14;;;;;;;0.73;0.73;;;29.40;99.90;;;;;;5069959;28;20261;-81
2022/07/21 11:59:40;;;;;;;0.80;0.80;;;29.30;99.90;;;;;;5065679;28;20213;-81
2022/07/21 12:02:10;;;;;;;2.40;0.73;;;29.60;99.90;;;;;;5070525;28;20240;-81
2022/07/21 12:04:39;;;;;;;1.05;0.98;;;29.80;99.90;;;;;;5068223;28;20204;-81
2022/07/21 12:07:27;;;;;;;0.80;0.80;;;30.10;99.90;;;;;;5066162;28;20192;-80
2022/07/21 12:09:55;;;;;;;0.77;0.77;;;30.10;99.90;;;;;;5066733;28;20204;-81
2022/07/21 12:12:32;;;;;;;1.15;1.10;;;29.80;99.90;;;;;;5069315;28;20177;-80
2022/07/21 12:15:10;;;;;;;2.85;1.25;;;29.90;99.90;;;;;;5067070;28;20215;-80
2022/07/21 12:17:38;;;;;;;1.50;1.40;;;29.80;99.90;;;;;;5064230;28;20649;-81
2022/07/21 12:20:05;;;;;;;0.77;0.77;;;29.90;99.90;;;;;;5070741;28;20594;-81
2022/07/21 12:22:43;;;;;;;5.47;1.73;;;30.10;99.90;;;;;;5061464;28;20273;-81
2022/07/21 12:25:09;;;;;;;2.10;1.98;;;30.30;99.90;;;;;;5063436;28;20517;-81
2022/07/21 12:27:36;;;;;;;1.20;0.90;;;30.30;99.90;;;;;;5061520;28;20262;-81
2022/07/21 12:30:06;;;;;;;1.60;1.50;;;29.80;99.90;;;;;;5061419;28;20198;-81
2022/07/21 12:32:47;;;;;;;1.15;1.02;;;29.80;99.90;;;;;;5065401;28;20192;-81
2022/07/21 12:35:22;;;;;;;0.63;0.63;;;29.40;99.90;;;;;;5064073;28;20202;-80
2022/07/21 12:37:57;;;;;;;0.90;0.82;;;29.20;99.90;;;;;;5069159;28;20263;-80
2022/07/21 12:40:23;;;;;;;1.23;1.13;;;29.70;99.90;;;;;;5060848;28;20208;-79
2022/07/21 12:42:49;;;;;;;1.80;1.20;;;30.10;99.90;;;;;;5070105;28;20634;-80
2022/07/21 12:45:20;;;;;;;1.85;0.73;;;30.40;99.90;;;;;;5067051;28;20595;-80
2022/07/21 12:48:06;;;;;;;1.02;1.00;;;30.50;99.90;;;;;;5072454;28;20184;-80
2022/07/21 12:50:32;;;;;;;0.80;0.80;;;30.40;99.90;;;;;;5071500;28;20189;-80
2022/07/21 12:52:57;;;;;;;0.65;0.65;;;30.50;99.90;;;;;;5071284;28;20199;-80
2022/07/21 12:55:23;;;;;;;0.73;0.70;;;30.30;99.90;;;;;;5071923;28;20248;-80